sensor_id;sensor_type;location;lat;lon;timestamp;temperature;humidity
76263;DHT22;65080;50.908;6.916;2023-03-13T00:01:18;12.50;63.10
76263;DHT22;65080;50.908;6.916;2023-03-13T00:03:48;12.60;63.20
76263;DHT22;65080;50.908;6.916;2023-03-13T00:06:17;12.50;63.20
76263;DHT22;65080;50.908;6.916;2023-03-13T00:08:46;12.50;63.20
76263;DHT22;65080;50.908;6.916;2023-03-13T00:11:14;12.50;63.20
76263;DHT22;65080;50.908;6.916;2023-03-13T00:13:43;12.50;63.30
76263;DHT22;65080;50.908;6.916;2023-03-13T00:16:12;12.50;63.30
76263;DHT22;65080;50.908;6.916;2023-03-13T00:18:44;12.50;63.40
76263;DHT22;65080;50.908;6.916;2023-03-13T00:21:16;12.50;63.40
76263;DHT22;65080;50.908;6.916;2023-03-13T00:23:44;12.50;63.40
76263;DHT22;65080;50.908;6.916;2023-03-13T00:26:15;12.60;63.50
76263;DHT22;65080;50.908;6.916;2023-03-13T00:28:44;12.60;64.20
76263;DHT22;65080;50.908;6.916;2023-03-13T00:31:14;12.60;63.50
76263;DHT22;65080;50.908;6.916;2023-03-13T00:33:45;12.60;63.50
76263;DHT22;65080;50.908;6.916;2023-03-13T00:36:16;12.60;63.70
76263;DHT22;65080;50.908;6.916;2023-03-13T00:38:45;12.50;63.60
76263;DHT22;65080;50.908;6.916;2023-03-13T00:41:16;12.60;63.70
76263;DHT22;65080;50.908;6.916;2023-03-13T00:43:45;12.60;63.80
76263;DHT22;65080;50.908;6.916;2023-03-13T00:46:15;12.60;63.90
76263;DHT22;65080;50.908;6.916;2023-03-13T00:48:44;12.70;64.50
76263;DHT22;65080;50.908;6.916;2023-03-13T00:51:16;12.60;64.40
76263;DHT22;65080;50.908;6.916;2023-03-13T00:53:45;12.60;64.60
76263;DHT22;65080;50.908;6.916;2023-03-13T00:56:15;12.60;64.80
76263;DHT22;65080;50.908;6.916;2023-03-13T00:58:45;12.60;65.00
76263;DHT22;65080;50.908;6.916;2023-03-13T01:01:15;12.60;65.10
76263;DHT22;65080;50.908;6.916;2023-03-13T01:03:46;12.60;65.30
76263;DHT22;65080;50.908;6.916;2023-03-13T01:06:18;12.70;65.50
76263;DHT22;65080;50.908;6.916;2023-03-13T01:08:46;12.70;66.20
76263;DHT22;65080;50.908;6.916;2023-03-13T01:11:16;12.70;65.60
76263;DHT22;65080;50.908;6.916;2023-03-13T01:13:46;12.70;65.70
76263;DHT22;65080;50.908;6.916;2023-03-13T01:16:15;12.80;65.80
76263;DHT22;65080;50.908;6.916;2023-03-13T01:18:46;12.80;65.80
76263;DHT22;65080;50.908;6.916;2023-03-13T01:21:19;12.90;65.90
76263;DHT22;65080;50.908;6.916;2023-03-13T01:23:49;12.90;65.90
76263;DHT22;65080;50.908;6.916;2023-03-13T01:26:18;12.90;65.90
76263;DHT22;65080;50.908;6.916;2023-03-13T01:28:47;12.90;66.00
76263;DHT22;65080;50.908;6.916;2023-03-13T01:31:17;12.90;66.00
76263;DHT22;65080;50.908;6.916;2023-03-13T01:33:47;13.00;66.10
76263;DHT22;65080;50.908;6.916;2023-03-13T01:36:17;13.00;66.10
76263;DHT22;65080;50.908;6.916;2023-03-13T01:38:47;13.00;66.00
76263;DHT22;65080;50.908;6.916;2023-03-13T01:41:16;13.10;66.10
76263;DHT22;65080;50.908;6.916;2023-03-13T01:43:45;13.10;66.20
76263;DHT22;65080;50.908;6.916;2023-03-13T01:46:14;13.10;66.10
76263;DHT22;65080;50.908;6.916;2023-03-13T01:48:48;13.20;66.20
76263;DHT22;65080;50.908;6.916;2023-03-13T01:51:22;13.20;66.10
76263;DHT22;65080;50.908;6.916;2023-03-13T01:53:56;13.20;66.10
76263;DHT22;65080;50.908;6.916;2023-03-13T01:56:32;13.20;66.20
76263;DHT22;65080;50.908;6.916;2023-03-13T01:59:02;13.20;66.40
76263;DHT22;65080;50.908;6.916;2023-03-13T02:01:31;13.20;66.20
76263;DHT22;65080;50.908;6.916;2023-03-13T02:04:00;13.20;66.20
76263;DHT22;65080;50.908;6.916;2023-03-13T02:06:32;13.20;66.30
76263;DHT22;65080;50.908;6.916;2023-03-13T02:09:07;13.20;66.40
76263;DHT22;65080;50.908;6.916;2023-03-13T02:11:45;13.30;66.60
76263;DHT22;65080;50.908;6.916;2023-03-13T02:14:16;13.20;66.60
76263;DHT22;65080;50.908;6.916;2023-03-13T02:16:48;13.20;66.70
76263;DHT22;65080;50.908;6.916;2023-03-13T02:19:22;13.20;66.80
76263;DHT22;65080;50.908;6.916;2023-03-13T02:21:57;13.20;66.90
76263;DHT22;65080;50.908;6.916;2023-03-13T02:24:34;13.20;67.10
76263;DHT22;65080;50.908;6.916;2023-03-13T02:27:06;13.20;67.30
76263;DHT22;65080;50.908;6.916;2023-03-13T02:29:34;13.20;67.40
76263;DHT22;65080;50.908;6.916;2023-03-13T02:32:03;13.20;67.50
76263;DHT22;65080;50.908;6.916;2023-03-13T02:34:33;13.20;67.70
76263;DHT22;65080;50.908;6.916;2023-03-13T02:37:03;13.20;68.10
76263;DHT22;65080;50.908;6.916;2023-03-13T02:39:33;13.10;69.20
76263;DHT22;65080;50.908;6.916;2023-03-13T02:42:02;13.10;69.10
76263;DHT22;65080;50.908;6.916;2023-03-13T02:44:37;13.00;69.60
76263;DHT22;65080;50.908;6.916;2023-03-13T02:47:05;13.00;70.30
76263;DHT22;65080;50.908;6.916;2023-03-13T02:49:35;12.90;70.60
76263;DHT22;65080;50.908;6.916;2023-03-13T02:52:12;12.80;71.00
76263;DHT22;65080;50.908;6.916;2023-03-13T02:54:43;12.80;71.60
76263;DHT22;65080;50.908;6.916;2023-03-13T02:57:12;12.70;71.80
76263;DHT22;65080;50.908;6.916;2023-03-13T02:59:42;12.70;72.20
76263;DHT22;65080;50.908;6.916;2023-03-13T03:02:10;12.70;72.50
76263;DHT22;65080;50.908;6.916;2023-03-13T03:04:39;12.70;72.70
76263;DHT22;65080;50.908;6.916;2023-03-13T03:07:07;12.70;72.90
76263;DHT22;65080;50.908;6.916;2023-03-13T03:09:35;12.70;73.10
76263;DHT22;65080;50.908;6.916;2023-03-13T03:12:04;12.60;73.10
76263;DHT22;65080;50.908;6.916;2023-03-13T03:14:33;12.70;73.40
76263;DHT22;65080;50.908;6.916;2023-03-13T03:17:03;12.70;73.50
76263;DHT22;65080;50.908;6.916;2023-03-13T03:19:31;12.70;73.60
76263;DHT22;65080;50.908;6.916;2023-03-13T03:21:59;12.70;73.70
76263;DHT22;65080;50.908;6.916;2023-03-13T03:24:28;12.70;73.80
76263;DHT22;65080;50.908;6.916;2023-03-13T03:26:56;12.70;73.90
76263;DHT22;65080;50.908;6.916;2023-03-13T03:29:24;12.70;73.90
76263;DHT22;65080;50.908;6.916;2023-03-13T03:31:53;12.70;73.90
76263;DHT22;65080;50.908;6.916;2023-03-13T03:34:23;12.70;74.00
76263;DHT22;65080;50.908;6.916;2023-03-13T03:36:51;12.70;74.00
76263;DHT22;65080;50.908;6.916;2023-03-13T03:39:19;12.80;74.00
76263;DHT22;65080;50.908;6.916;2023-03-13T03:41:48;12.90;74.10
76263;DHT22;65080;50.908;6.916;2023-03-13T03:44:16;12.90;74.10
76263;DHT22;65080;50.908;6.916;2023-03-13T03:46:44;12.90;74.10
76263;DHT22;65080;50.908;6.916;2023-03-13T03:49:12;12.90;74.00
76263;DHT22;65080;50.908;6.916;2023-03-13T03:51:42;12.90;74.00
76263;DHT22;65080;50.908;6.916;2023-03-13T03:54:10;12.90;74.70
76263;DHT22;65080;50.908;6.916;2023-03-13T03:56:39;13.00;74.10
76263;DHT22;65080;50.908;6.916;2023-03-13T03:59:07;13.00;74.10
76263;DHT22;65080;50.908;6.916;2023-03-13T04:01:35;13.00;74.10
76263;DHT22;65080;50.908;6.916;2023-03-13T04:04:03;13.10;74.20
76263;DHT22;65080;50.908;6.916;2023-03-13T04:06:31;13.10;74.30
76263;DHT22;65080;50.908;6.916;2023-03-13T04:09:01;13.10;74.30
76263;DHT22;65080;50.908;6.916;2023-03-13T04:11:29;13.10;74.40
76263;DHT22;65080;50.908;6.916;2023-03-13T04:13:58;13.20;74.50
76263;DHT22;65080;50.908;6.916;2023-03-13T04:16:26;13.20;74.40
76263;DHT22;65080;50.908;6.916;2023-03-13T04:18:55;13.20;74.50
76263;DHT22;65080;50.908;6.916;2023-03-13T04:21:23;13.20;74.50
76263;DHT22;65080;50.908;6.916;2023-03-13T04:23:51;13.30;74.70
76263;DHT22;65080;50.908;6.916;2023-03-13T04:26:20;13.20;74.60
76263;DHT22;65080;50.908;6.916;2023-03-13T04:28:49;13.30;74.70
76263;DHT22;65080;50.908;6.916;2023-03-13T04:31:18;13.30;74.80
76263;DHT22;65080;50.908;6.916;2023-03-13T04:33:46;13.30;74.80
76263;DHT22;65080;50.908;6.916;2023-03-13T04:36:15;13.40;75.00
76263;DHT22;65080;50.908;6.916;2023-03-13T04:38:43;13.40;75.10
76263;DHT22;65080;50.908;6.916;2023-03-13T04:41:11;13.40;75.20
76263;DHT22;65080;50.908;6.916;2023-03-13T04:43:41;13.40;75.40
76263;DHT22;65080;50.908;6.916;2023-03-13T04:46:09;13.40;75.50
76263;DHT22;65080;50.908;6.916;2023-03-13T04:48:37;13.40;75.60
76263;DHT22;65080;50.908;6.916;2023-03-13T04:51:05;13.50;75.80
76263;DHT22;65080;50.908;6.916;2023-03-13T04:53:34;13.40;75.80
76263;DHT22;65080;50.908;6.916;2023-03-13T04:56:02;13.40;75.90
76263;DHT22;65080;50.908;6.916;2023-03-13T04:58:30;13.40;75.80
76263;DHT22;65080;50.908;6.916;2023-03-13T05:01:00;13.50;76.00
76263;DHT22;65080;50.908;6.916;2023-03-13T05:03:28;13.50;76.00
76263;DHT22;65080;50.908;6.916;2023-03-13T05:05:56;13.50;76.00
76263;DHT22;65080;50.908;6.916;2023-03-13T05:08:25;13.50;76.00
76263;DHT22;65080;50.908;6.916;2023-03-13T05:10:53;13.50;76.00
76263;DHT22;65080;50.908;6.916;2023-03-13T05:13:21;13.50;76.00
76263;DHT22;65080;50.908;6.916;2023-03-13T05:15:49;13.60;76.10
76263;DHT22;65080;50.908;6.916;2023-03-13T05:18:19;13.50;76.10
76263;DHT22;65080;50.908;6.916;2023-03-13T05:20:47;13.60;76.20
76263;DHT22;65080;50.908;6.916;2023-03-13T05:23:16;13.60;76.20
76263;DHT22;65080;50.908;6.916;2023-03-13T05:25:44;13.60;76.20
76263;DHT22;65080;50.908;6.916;2023-03-13T05:28:12;13.60;76.10
76263;DHT22;65080;50.908;6.916;2023-03-13T05:30:40;13.70;76.20
76263;DHT22;65080;50.908;6.916;2023-03-13T05:33:09;13.70;76.10
76263;DHT22;65080;50.908;6.916;2023-03-13T05:35:38;13.70;76.10
76263;DHT22;65080;50.908;6.916;2023-03-13T05:38:06;13.80;76.20
76263;DHT22;65080;50.908;6.916;2023-03-13T05:40:35;13.80;76.20
76263;DHT22;65080;50.908;6.916;2023-03-13T05:43:03;13.80;76.20
76263;DHT22;65080;50.908;6.916;2023-03-13T05:45:31;13.80;76.20
76263;DHT22;65080;50.908;6.916;2023-03-13T05:48:00;13.80;76.20
76263;DHT22;65080;50.908;6.916;2023-03-13T05:50:28;13.80;76.20
76263;DHT22;65080;50.908;6.916;2023-03-13T05:52:57;13.80;76.10
76263;DHT22;65080;50.908;6.916;2023-03-13T05:55:26;13.90;76.20
76263;DHT22;65080;50.908;6.916;2023-03-13T05:57:54;13.90;76.20
76263;DHT22;65080;50.908;6.916;2023-03-13T06:00:23;14.00;76.20
76263;DHT22;65080;50.908;6.916;2023-03-13T06:02:51;13.90;76.10
76263;DHT22;65080;50.908;6.916;2023-03-13T06:05:19;13.90;76.10
76263;DHT22;65080;50.908;6.916;2023-03-13T06:07:48;13.90;76.10
76263;DHT22;65080;50.908;6.916;2023-03-13T06:10:18;13.90;76.10
76263;DHT22;65080;50.908;6.916;2023-03-13T06:12:51;14.00;76.20
76263;DHT22;65080;50.908;6.916;2023-03-13T06:15:37;14.00;76.20
76263;DHT22;65080;50.908;6.916;2023-03-13T06:18:37;14.10;76.20
76263;DHT22;65080;50.908;6.916;2023-03-13T06:21:06;14.10;76.10
76263;DHT22;65080;50.908;6.916;2023-03-13T06:23:34;14.10;76.00
76263;DHT22;65080;50.908;6.916;2023-03-13T06:26:04;14.10;76.00
76263;DHT22;65080;50.908;6.916;2023-03-13T06:28:33;14.20;76.10
76263;DHT22;65080;50.908;6.916;2023-03-13T06:31:02;14.20;76.00
76263;DHT22;65080;50.908;6.916;2023-03-13T06:33:31;14.30;76.10
76263;DHT22;65080;50.908;6.916;2023-03-13T06:36:00;14.30;75.90
76263;DHT22;65080;50.908;6.916;2023-03-13T06:38:29;14.40;75.90
76263;DHT22;65080;50.908;6.916;2023-03-13T06:40:57;14.40;75.80
76263;DHT22;65080;50.908;6.916;2023-03-13T06:43:27;14.50;75.70
76263;DHT22;65080;50.908;6.916;2023-03-13T06:45:55;14.70;75.80
76263;DHT22;65080;50.908;6.916;2023-03-13T06:48:23;14.60;75.50
76263;DHT22;65080;50.908;6.916;2023-03-13T06:50:52;14.70;75.40
76263;DHT22;65080;50.908;6.916;2023-03-13T06:53:22;14.70;75.20
76263;DHT22;65080;50.908;6.916;2023-03-13T06:55:50;14.80;75.10
76263;DHT22;65080;50.908;6.916;2023-03-13T06:58:18;14.80;74.90
76263;DHT22;65080;50.908;6.916;2023-03-13T07:01:04;14.90;74.70
76263;DHT22;65080;50.908;6.916;2023-03-13T07:03:33;14.90;74.50
76263;DHT22;65080;50.908;6.916;2023-03-13T07:06:02;15.00;74.40
76263;DHT22;65080;50.908;6.916;2023-03-13T07:08:32;15.00;74.20
76263;DHT22;65080;50.908;6.916;2023-03-13T07:11:02;15.10;74.00
76263;DHT22;65080;50.908;6.916;2023-03-13T07:13:31;15.10;73.90
76263;DHT22;65080;50.908;6.916;2023-03-13T07:16:01;15.20;73.70
76263;DHT22;65080;50.908;6.916;2023-03-13T07:18:31;15.20;73.10
76263;DHT22;65080;50.908;6.916;2023-03-13T07:21:01;15.30;73.00
76263;DHT22;65080;50.908;6.916;2023-03-13T07:23:33;15.30;72.00
76263;DHT22;65080;50.908;6.916;2023-03-13T07:26:04;15.30;72.20
76263;DHT22;65080;50.908;6.916;2023-03-13T07:28:33;15.30;71.90
76263;DHT22;65080;50.908;6.916;2023-03-13T07:31:07;15.40;71.60
76263;DHT22;65080;50.908;6.916;2023-03-13T07:33:36;15.40;71.10
76263;DHT22;65080;50.908;6.916;2023-03-13T07:36:05;15.40;70.80
76263;DHT22;65080;50.908;6.916;2023-03-13T07:38:34;15.50;70.60
76263;DHT22;65080;50.908;6.916;2023-03-13T07:41:03;15.50;70.20
76263;DHT22;65080;50.908;6.916;2023-03-13T07:43:31;15.50;69.70
76263;DHT22;65080;50.908;6.916;2023-03-13T07:46:02;15.60;69.40
76263;DHT22;65080;50.908;6.916;2023-03-13T07:48:33;15.60;69.00
76263;DHT22;65080;50.908;6.916;2023-03-13T07:51:02;15.70;68.70
76263;DHT22;65080;50.908;6.916;2023-03-13T07:53:30;15.80;68.40
76263;DHT22;65080;50.908;6.916;2023-03-13T07:56:00;15.80;68.00
76263;DHT22;65080;50.908;6.916;2023-03-13T07:58:30;15.80;67.60
76263;DHT22;65080;50.908;6.916;2023-03-13T08:00:59;15.90;67.40
76263;DHT22;65080;50.908;6.916;2023-03-13T08:03:27;15.90;67.10
76263;DHT22;65080;50.908;6.916;2023-03-13T08:05:58;15.90;66.90
76263;DHT22;65080;50.908;6.916;2023-03-13T08:08:28;15.90;66.60
76263;DHT22;65080;50.908;6.916;2023-03-13T08:11:00;15.90;66.40
76263;DHT22;65080;50.908;6.916;2023-03-13T08:13:29;16.00;66.20
76263;DHT22;65080;50.908;6.916;2023-03-13T08:16:02;15.90;65.90
76263;DHT22;65080;50.908;6.916;2023-03-13T08:18:31;16.00;65.70
76263;DHT22;65080;50.908;6.916;2023-03-13T08:21:03;16.00;65.60
76263;DHT22;65080;50.908;6.916;2023-03-13T08:23:32;16.00;65.50
76263;DHT22;65080;50.908;6.916;2023-03-13T08:26:02;16.00;65.50
76263;DHT22;65080;50.908;6.916;2023-03-13T08:28:30;16.00;65.40
76263;DHT22;65080;50.908;6.916;2023-03-13T08:31:06;16.00;65.40
76263;DHT22;65080;50.908;6.916;2023-03-13T08:33:35;16.00;65.10
76263;DHT22;65080;50.908;6.916;2023-03-13T08:36:15;16.00;65.20
76263;DHT22;65080;50.908;6.916;2023-03-13T08:38:45;16.00;65.10
76263;DHT22;65080;50.908;6.916;2023-03-13T08:41:15;16.00;65.40
76263;DHT22;65080;50.908;6.916;2023-03-13T08:43:45;15.90;65.80
76263;DHT22;65080;50.908;6.916;2023-03-13T08:46:14;15.80;66.00
76263;DHT22;65080;50.908;6.916;2023-03-13T08:48:48;15.80;66.60
76263;DHT22;65080;50.908;6.916;2023-03-13T08:51:19;15.80;67.20
76263;DHT22;65080;50.908;6.916;2023-03-13T08:53:48;15.70;67.60
76263;DHT22;65080;50.908;6.916;2023-03-13T08:56:18;15.70;67.90
76263;DHT22;65080;50.908;6.916;2023-03-13T08:58:49;15.70;67.90
76263;DHT22;65080;50.908;6.916;2023-03-13T09:01:17;15.70;67.80
76263;DHT22;65080;50.908;6.916;2023-03-13T09:03:46;15.90;67.90
76263;DHT22;65080;50.908;6.916;2023-03-13T09:06:14;15.80;67.70
76263;DHT22;65080;50.908;6.916;2023-03-13T09:08:44;15.80;67.60
76263;DHT22;65080;50.908;6.916;2023-03-13T09:11:14;15.80;67.60
76263;DHT22;65080;50.908;6.916;2023-03-13T09:13:46;15.80;67.50
76263;DHT22;65080;50.908;6.916;2023-03-13T09:16:16;15.90;67.60
76263;DHT22;65080;50.908;6.916;2023-03-13T09:18:45;15.90;67.60
76263;DHT22;65080;50.908;6.916;2023-03-13T09:21:15;15.90;67.60
76263;DHT22;65080;50.908;6.916;2023-03-13T09:23:45;15.90;67.60
76263;DHT22;65080;50.908;6.916;2023-03-13T09:26:15;15.90;67.70
76263;DHT22;65080;50.908;6.916;2023-03-13T09:28:44;15.90;67.70
76263;DHT22;65080;50.908;6.916;2023-03-13T09:31:14;15.90;67.70
76263;DHT22;65080;50.908;6.916;2023-03-13T09:33:44;16.00;67.80
76263;DHT22;65080;50.908;6.916;2023-03-13T09:36:14;16.00;67.90
76263;DHT22;65080;50.908;6.916;2023-03-13T09:38:47;16.00;68.00
76263;DHT22;65080;50.908;6.916;2023-03-13T09:41:22;16.00;68.00
76263;DHT22;65080;50.908;6.916;2023-03-13T09:43:57;16.00;68.00
76263;DHT22;65080;50.908;6.916;2023-03-13T09:46:35;16.00;68.10
76263;DHT22;65080;50.908;6.916;2023-03-13T09:49:10;16.00;68.20
76263;DHT22;65080;50.908;6.916;2023-03-13T09:51:41;16.00;68.30
76263;DHT22;65080;50.908;6.916;2023-03-13T09:54:24;16.00;68.40
76263;DHT22;65080;50.908;6.916;2023-03-13T09:56:56;16.00;68.30
76263;DHT22;65080;50.908;6.916;2023-03-13T09:59:29;16.10;68.40
76263;DHT22;65080;50.908;6.916;2023-03-13T10:02:02;16.10;68.40
76263;DHT22;65080;50.908;6.916;2023-03-13T10:04:38;16.10;68.40
76263;DHT22;65080;50.908;6.916;2023-03-13T10:07:10;16.20;68.50
76263;DHT22;65080;50.908;6.916;2023-03-13T10:09:40;16.20;68.50
76263;DHT22;65080;50.908;6.916;2023-03-13T10:12:15;16.20;68.40
76263;DHT22;65080;50.908;6.916;2023-03-13T10:14:53;16.30;68.40
76263;DHT22;65080;50.908;6.916;2023-03-13T10:17:30;16.40;69.00
76263;DHT22;65080;50.908;6.916;2023-03-13T10:20:01;16.40;68.10
76263;DHT22;65080;50.908;6.916;2023-03-13T10:22:40;16.50;68.00
76263;DHT22;65080;50.908;6.916;2023-03-13T10:25:20;16.50;67.90
76263;DHT22;65080;50.908;6.916;2023-03-13T10:27:51;16.60;67.70
76263;DHT22;65080;50.908;6.916;2023-03-13T10:30:23;16.70;67.70
76263;DHT22;65080;50.908;6.916;2023-03-13T10:32:53;16.80;67.30
76263;DHT22;65080;50.908;6.916;2023-03-13T10:35:30;16.90;67.00
76263;DHT22;65080;50.908;6.916;2023-03-13T10:38:03;17.00;66.60
76263;DHT22;65080;50.908;6.916;2023-03-13T10:40:33;17.20;66.50
76263;DHT22;65080;50.908;6.916;2023-03-13T10:43:04;17.30;66.00
76263;DHT22;65080;50.908;6.916;2023-03-13T10:45:35;17.30;65.70
76263;DHT22;65080;50.908;6.916;2023-03-13T10:48:11;17.40;65.40
76263;DHT22;65080;50.908;6.916;2023-03-13T10:50:42;17.40;64.80
76263;DHT22;65080;50.908;6.916;2023-03-13T10:53:31;17.50;64.80
76263;DHT22;65080;50.908;6.916;2023-03-13T10:56:07;17.60;64.20
76263;DHT22;65080;50.908;6.916;2023-03-13T10:58:40;17.60;64.10
76263;DHT22;65080;50.908;6.916;2023-03-13T11:01:16;17.60;63.70
76263;DHT22;65080;50.908;6.916;2023-03-13T11:03:46;17.70;63.70
76263;DHT22;65080;50.908;6.916;2023-03-13T11:06:24;17.70;63.60
76263;DHT22;65080;50.908;6.916;2023-03-13T11:08:58;17.80;63.60
76263;DHT22;65080;50.908;6.916;2023-03-13T11:11:28;17.90;63.70
76263;DHT22;65080;50.908;6.916;2023-03-13T11:14:17;17.90;63.70
76263;DHT22;65080;50.908;6.916;2023-03-13T11:16:47;17.90;63.30
76263;DHT22;65080;50.908;6.916;2023-03-13T11:19:29;17.90;63.30
76263;DHT22;65080;50.908;6.916;2023-03-13T11:22:11;18.00;63.20
76263;DHT22;65080;50.908;6.916;2023-03-13T11:24:43;18.00;63.10
76263;DHT22;65080;50.908;6.916;2023-03-13T11:27:21;18.00;62.90
76263;DHT22;65080;50.908;6.916;2023-03-13T11:30:00;18.10;62.70
76263;DHT22;65080;50.908;6.916;2023-03-13T11:32:39;18.10;62.60
76263;DHT22;65080;50.908;6.916;2023-03-13T11:35:21;18.10;62.40
76263;DHT22;65080;50.908;6.916;2023-03-13T11:37:55;18.20;62.40
76263;DHT22;65080;50.908;6.916;2023-03-13T11:40:29;18.20;62.20
76263;DHT22;65080;50.908;6.916;2023-03-13T11:43:24;18.30;62.20
76263;DHT22;65080;50.908;6.916;2023-03-13T11:46:06;18.40;61.70
76263;DHT22;65080;50.908;6.916;2023-03-13T11:51:40;18.50;61.60
76263;DHT22;65080;50.908;6.916;2023-03-13T11:54:44;18.50;61.20
76263;DHT22;65080;50.908;6.916;2023-03-13T11:57:20;18.50;60.90
76263;DHT22;65080;50.908;6.916;2023-03-13T12:00:06;18.50;61.00
76263;DHT22;65080;50.908;6.916;2023-03-13T12:02:45;18.50;60.50
76263;DHT22;65080;50.908;6.916;2023-03-13T12:05:17;18.50;60.40
76263;DHT22;65080;50.908;6.916;2023-03-13T12:07:50;18.40;60.10
76263;DHT22;65080;50.908;6.916;2023-03-13T12:10:25;18.30;60.00
76263;DHT22;65080;50.908;6.916;2023-03-13T12:13:00;18.30;60.10
76263;DHT22;65080;50.908;6.916;2023-03-13T12:15:34;18.30;60.20
76263;DHT22;65080;50.908;6.916;2023-03-13T12:18:14;18.30;60.10
76263;DHT22;65080;50.908;6.916;2023-03-13T12:20:52;18.30;60.00
76263;DHT22;65080;50.908;6.916;2023-03-13T12:23:39;18.30;59.60
76263;DHT22;65080;50.908;6.916;2023-03-13T12:26:11;18.30;59.50
76263;DHT22;65080;50.908;6.916;2023-03-13T12:28:42;18.40;59.40
76263;DHT22;65080;50.908;6.916;2023-03-13T12:31:18;18.50;59.10
76263;DHT22;65080;50.908;6.916;2023-03-13T12:33:54;18.60;59.00
76263;DHT22;65080;50.908;6.916;2023-03-13T12:36:27;18.50;58.90
76263;DHT22;65080;50.908;6.916;2023-03-13T12:39:08;18.50;59.00
76263;DHT22;65080;50.908;6.916;2023-03-13T12:41:39;18.50;58.90
76263;DHT22;65080;50.908;6.916;2023-03-13T12:44:12;18.50;58.70
76263;DHT22;65080;50.908;6.916;2023-03-13T12:46:45;18.50;58.60
76263;DHT22;65080;50.908;6.916;2023-03-13T12:49:32;18.40;58.50
76263;DHT22;65080;50.908;6.916;2023-03-13T12:55:27;18.60;58.30
76263;DHT22;65080;50.908;6.916;2023-03-13T12:58:23;18.60;58.10
76263;DHT22;65080;50.908;6.916;2023-03-13T13:00:54;18.60;58.10
76263;DHT22;65080;50.908;6.916;2023-03-13T13:03:30;18.60;58.30
76263;DHT22;65080;50.908;6.916;2023-03-13T13:06:07;18.60;58.10
76263;DHT22;65080;50.908;6.916;2023-03-13T13:08:38;18.60;58.10
76263;DHT22;65080;50.908;6.916;2023-03-13T13:11:45;18.60;58.10
76263;DHT22;65080;50.908;6.916;2023-03-13T13:20:38;18.50;58.30
76263;DHT22;65080;50.908;6.916;2023-03-13T13:23:40;18.60;58.40
76263;DHT22;65080;50.908;6.916;2023-03-13T13:26:44;18.60;58.50
76263;DHT22;65080;50.908;6.916;2023-03-13T13:32:43;18.40;58.50
76263;DHT22;65080;50.908;6.916;2023-03-13T13:35:26;18.30;58.60
76263;DHT22;65080;50.908;6.916;2023-03-13T13:38:30;18.20;58.90
76263;DHT22;65080;50.908;6.916;2023-03-13T13:41:34;18.20;59.10
76263;DHT22;65080;50.908;6.916;2023-03-13T13:44:27;18.10;59.20
76263;DHT22;65080;50.908;6.916;2023-03-13T13:46:57;18.10;59.40
76263;DHT22;65080;50.908;6.916;2023-03-13T13:49:54;18.10;60.10
76263;DHT22;65080;50.908;6.916;2023-03-13T13:52:35;18.10;59.70
76263;DHT22;65080;50.908;6.916;2023-03-13T13:55:41;18.00;59.80
76263;DHT22;65080;50.908;6.916;2023-03-13T13:58:13;17.90;60.00
76263;DHT22;65080;50.908;6.916;2023-03-13T14:00:46;17.90;60.30
76263;DHT22;65080;50.908;6.916;2023-03-13T14:03:20;18.00;60.50
76263;DHT22;65080;50.908;6.916;2023-03-13T14:05:51;18.10;60.60
76263;DHT22;65080;50.908;6.916;2023-03-13T14:08:24;18.10;60.40
76263;DHT22;65080;50.908;6.916;2023-03-13T14:11:07;18.10;60.50
76263;DHT22;65080;50.908;6.916;2023-03-13T14:13:40;18.20;60.40
76263;DHT22;65080;50.908;6.916;2023-03-13T14:16:20;18.20;60.40
76263;DHT22;65080;50.908;6.916;2023-03-13T14:18:51;18.20;60.40
76263;DHT22;65080;50.908;6.916;2023-03-13T14:21:21;18.30;60.40
76263;DHT22;65080;50.908;6.916;2023-03-13T14:23:50;18.30;60.20
76263;DHT22;65080;50.908;6.916;2023-03-13T14:26:21;18.40;60.10
76263;DHT22;65080;50.908;6.916;2023-03-13T14:28:52;18.40;59.90
76263;DHT22;65080;50.908;6.916;2023-03-13T14:31:27;18.40;59.80
76263;DHT22;65080;50.908;6.916;2023-03-13T14:33:59;18.40;59.80
76263;DHT22;65080;50.908;6.916;2023-03-13T14:36:28;18.30;59.60
76263;DHT22;65080;50.908;6.916;2023-03-13T14:38:57;18.30;59.50
76263;DHT22;65080;50.908;6.916;2023-03-13T14:41:31;18.30;59.50
76263;DHT22;65080;50.908;6.916;2023-03-13T14:44:04;18.30;59.50
76263;DHT22;65080;50.908;6.916;2023-03-13T14:46:34;18.30;59.50
76263;DHT22;65080;50.908;6.916;2023-03-13T14:49:06;18.30;59.50
76263;DHT22;65080;50.908;6.916;2023-03-13T14:51:37;18.20;59.40
76263;DHT22;65080;50.908;6.916;2023-03-13T14:54:23;18.20;59.30
76263;DHT22;65080;50.908;6.916;2023-03-13T14:57:13;18.20;59.10
76263;DHT22;65080;50.908;6.916;2023-03-13T14:59:43;18.20;59.10
76263;DHT22;65080;50.908;6.916;2023-03-13T15:02:14;18.20;59.20
76263;DHT22;65080;50.908;6.916;2023-03-13T15:04:52;18.10;59.20
76263;DHT22;65080;50.908;6.916;2023-03-13T15:07:22;18.10;59.20
76263;DHT22;65080;50.908;6.916;2023-03-13T15:09:52;18.00;59.10
76263;DHT22;65080;50.908;6.916;2023-03-13T15:12:22;18.00;59.10
76263;DHT22;65080;50.908;6.916;2023-03-13T15:14:52;18.00;59.10
76263;DHT22;65080;50.908;6.916;2023-03-13T15:17:21;18.00;59.20
76263;DHT22;65080;50.908;6.916;2023-03-13T15:19:52;17.90;59.10
76263;DHT22;65080;50.908;6.916;2023-03-13T15:22:25;18.00;59.30
76263;DHT22;65080;50.908;6.916;2023-03-13T15:24:54;17.90;59.30
76263;DHT22;65080;50.908;6.916;2023-03-13T15:27:34;17.90;59.30
76263;DHT22;65080;50.908;6.916;2023-03-13T15:30:03;17.90;59.30
76263;DHT22;65080;50.908;6.916;2023-03-13T15:32:33;17.90;59.10
76263;DHT22;65080;50.908;6.916;2023-03-13T15:35:20;17.80;59.20
76263;DHT22;65080;50.908;6.916;2023-03-13T15:37:49;17.90;59.10
76263;DHT22;65080;50.908;6.916;2023-03-13T15:40:18;17.90;59.10
76263;DHT22;65080;50.908;6.916;2023-03-13T15:42:47;17.90;58.90
76263;DHT22;65080;50.908;6.916;2023-03-13T15:45:16;17.90;58.60
76263;DHT22;65080;50.908;6.916;2023-03-13T15:47:45;17.90;58.40
76263;DHT22;65080;50.908;6.916;2023-03-13T15:50:16;17.90;58.30
76263;DHT22;65080;50.908;6.916;2023-03-13T15:52:45;17.80;58.20
76263;DHT22;65080;50.908;6.916;2023-03-13T15:55:13;17.90;58.10
76263;DHT22;65080;50.908;6.916;2023-03-13T15:57:45;18.00;58.00
76263;DHT22;65080;50.908;6.916;2023-03-13T16:00:18;18.30;57.80
76263;DHT22;65080;50.908;6.916;2023-03-13T16:02:47;18.60;57.30
76263;DHT22;65080;50.908;6.916;2023-03-13T16:05:16;19.00;56.90
76263;DHT22;65080;50.908;6.916;2023-03-13T16:07:44;19.20;56.30
76263;DHT22;65080;50.908;6.916;2023-03-13T16:10:18;19.40;55.80
76263;DHT22;65080;50.908;6.916;2023-03-13T16:12:51;19.50;55.30
76263;DHT22;65080;50.908;6.916;2023-03-13T16:15:21;19.40;55.10
76263;DHT22;65080;50.908;6.916;2023-03-13T16:17:49;19.30;55.00